Time;durP1;ratioP1;P1;durP2;ratioP2;P2;SDS_P1;SDS_P2;PMS_P1;PMS_P2;Temp;Humidity;BMP_temperature;BMP_pressure;BME280_temperature;BME280_humidity;BME280_pressure;Samples;Min_cycle;Max_cycle;Signal;HPM_P1;HPM_P2
2021/09/13 00:01:04;;;;;;;7.45;1.40;;;;;;;;;;5019207;28;20044;-83
2021/09/13 00:03:30;;;;;;;5.95;1.00;;;;;;;;;;5018827;28;20026;-83
2021/09/13 00:05:56;;;;;;;3.88;0.80;;;;;;;;;;5020107;28;20504;-83
2021/09/13 00:08:21;;;;;;;6.65;0.73;;;;;;;;;;5018727;28;20033;-83
2021/09/13 00:10:48;;;;;;;3.45;0.70;;;;;;;;;;5019871;28;20034;-82
2021/09/13 00:13:14;;;;;;;2.80;0.80;;;;;;;;;;5019847;28;20132;-83
2021/09/13 00:15:40;;;;;;;4.40;0.80;;;;;;;;;;5019704;28;20026;-83
2021/09/13 00:18:06;;;;;;;5.88;0.70;;;;;;;;;;5019724;28;20021;-83
2021/09/13 00:20:32;;;;;;;3.47;0.63;;;;;;;;;;5000347;28;20061;-81
2021/09/13 00:22:58;;;;;;;5.68;1.13;;;;;;;;;;4998425;28;20057;-83
2021/09/13 00:25:24;;;;;;;1.83;0.50;;;;;;;;;;4999720;28;20378;-84
2021/09/13 00:27:52;;;;;;;2.00;0.50;;;;;;;;;;5000162;28;20026;-83
2021/09/13 00:30:18;;;;;;;3.47;0.60;;;;;;;;;;4998567;28;20026;-83
2021/09/13 00:32:44;;;;;;;3.10;0.60;;;;;;;;;;4999974;28;20243;-84
2021/09/13 00:35:10;;;;;;;2.28;0.40;;;;;;;;;;5000590;28;20030;-90
2021/09/13 00:37:36;;;;;;;2.20;0.60;;;;;;;;;;5000292;28;20022;-89
2021/09/13 00:40:03;;;;;;;5.18;0.60;;;;;;;;;;5000044;28;20142;-90
2021/09/13 00:42:29;;;;;;;0.90;0.50;;;;;;;;;;5001536;28;20092;-89
2021/09/13 00:44:57;;;;;;;1.75;0.63;;;;;;;;;;5014707;28;20088;-85
2021/09/13 00:47:23;;;;;;;4.57;0.70;;;;;;;;;;5020022;28;20025;-84
2021/09/13 00:49:49;;;;;;;3.30;0.90;;;;;;;;;;5019617;28;20048;-81
2021/09/13 00:52:15;;;;;;;5.35;0.90;;;;;;;;;;5017844;28;20033;-85
2021/09/13 00:54:42;;;;;;;0.90;0.50;;;;;;;;;;5017515;28;20033;-82
2021/09/13 00:57:08;;;;;;;4.15;0.70;;;;;;;;;;5018182;28;20413;-79
2021/09/13 00:59:34;;;;;;;6.82;0.70;;;;;;;;;;5015860;28;20026;-78
2021/09/13 01:02:00;;;;;;;2.10;0.68;;;;;;;;;;5016568;28;20041;-82
2021/09/13 01:04:26;;;;;;;4.18;0.70;;;;;;;;;;5017475;28;20014;-84
2021/09/13 01:06:52;;;;;;;1.73;0.63;;;;;;;;;;5018727;28;20121;-82
2021/09/13 01:09:18;;;;;;;4.35;0.95;;;;;;;;;;5018646;28;20018;-83
2021/09/13 01:11:44;;;;;;;2.88;0.50;;;;;;;;;;5017694;28;20029;-87
2021/09/13 01:14:10;;;;;;;2.03;0.60;;;;;;;;;;5019418;28;20041;-86
2021/09/13 01:16:36;;;;;;;5.07;0.70;;;;;;;;;;5019929;28;20156;-88
2021/09/13 01:19:02;;;;;;;0.82;0.60;;;;;;;;;;5020456;28;20019;-89
2021/09/13 01:21:28;;;;;;;4.28;0.60;;;;;;;;;;5019757;28;20060;-86
2021/09/13 01:23:54;;;;;;;3.65;0.70;;;;;;;;;;5019482;28;20450;-86
2021/09/13 01:26:20;;;;;;;1.52;0.55;;;;;;;;;;5019572;28;20082;-84
2021/09/13 01:28:46;;;;;;;1.42;0.50;;;;;;;;;;5017559;28;20030;-85
2021/09/13 01:31:13;;;;;;;1.98;0.70;;;;;;;;;;5018675;28;20018;-84
2021/09/13 01:33:39;;;;;;;5.97;0.70;;;;;;;;;;5018886;28;20081;-85
2021/09/13 01:36:05;;;;;;;3.30;0.60;;;;;;;;;;5019371;28;20033;-86
2021/09/13 01:38:32;;;;;;;1.60;0.50;;;;;;;;;;5019382;28;20057;-86
2021/09/13 01:40:57;;;;;;;3.80;0.60;;;;;;;;;;5019354;28;20038;-87
2021/09/13 01:43:23;;;;;;;5.45;1.00;;;;;;;;;;5019704;28;20022;-88
2021/09/13 01:45:50;;;;;;;0.88;0.60;;;;;;;;;;5019309;28;20389;-88
2021/09/13 01:48:16;;;;;;;4.70;0.88;;;;;;;;;;5019954;28;20029;-87
2021/09/13 01:50:42;;;;;;;1.55;0.70;;;;;;;;;;5019025;28;20030;-86
2021/09/13 01:53:08;;;;;;;1.83;0.88;;;;;;;;;;5019749;28;20018;-87
2021/09/13 01:55:34;;;;;;;1.13;0.65;;;;;;;;;;5017544;28;20049;-86
2021/09/13 01:58:00;;;;;;;1.35;0.75;;;;;;;;;;5018071;28;20025;-85
2021/09/13 02:00:26;;;;;;;1.92;0.70;;;;;;;;;;5017877;28;20030;-82
2021/09/13 02:02:52;;;;;;;3.97;1.00;;;;;;;;;;5017682;28;20084;-85
2021/09/13 02:05:18;;;;;;;2.58;0.88;;;;;;;;;;5018927;28;20018;-88
2021/09/13 02:07:44;;;;;;;5.22;0.93;;;;;;;;;;5018399;28;20588;-84
2021/09/13 02:10:10;;;;;;;4.47;0.90;;;;;;;;;;5017874;28;20022;-89
2021/09/13 02:12:36;;;;;;;1.73;0.93;;;;;;;;;;5018518;28;20056;-88
2021/09/13 02:15:06;;;;;;;3.92;1.13;;;;;;;;;;5019534;28;20056;-85
2021/09/13 02:17:32;;;;;;;1.42;0.98;;;;;;;;;;5017978;28;20137;-84
2021/09/13 02:19:57;;;;;;;5.28;1.13;;;;;;;;;;5017464;28;20481;-87
2021/09/13 02:22:23;;;;;;;5.43;0.85;;;;;;;;;;5018136;28;20053;-86
2021/09/13 02:24:49;;;;;;;8.13;1.38;;;;;;;;;;5018623;28;20081;-87
2021/09/13 02:27:15;;;;;;;7.05;1.00;;;;;;;;;;5018400;28;20129;-86
2021/09/13 02:29:41;;;;;;;5.30;1.00;;;;;;;;;;5017848;28;20018;-87
2021/09/13 02:32:07;;;;;;;6.35;1.00;;;;;;;;;;5017304;28;20081;-88
2021/09/13 02:34:33;;;;;;;9.63;1.25;;;;;;;;;;4997137;28;20358;-79
2021/09/13 02:36:59;;;;;;;6.38;0.80;;;;;;;;;;4997149;28;20492;-81
2021/09/13 02:39:25;;;;;;;14.90;1.10;;;;;;;;;;4997857;28;20022;-80
2021/09/13 02:41:51;;;;;;;3.97;0.85;;;;;;;;;;4997995;28;20038;-88
2021/09/13 02:44:18;;;;;;;2.92;0.88;;;;;;;;;;4997807;28;20065;-87
2021/09/13 02:46:44;;;;;;;5.60;1.05;;;;;;;;;;4997635;28;20026;-85
2021/09/13 02:49:10;;;;;;;5.65;1.10;;;;;;;;;;5006114;28;20075;-86
2021/09/13 02:51:36;;;;;;;5.93;1.50;;;;;;;;;;5017128;28;20029;-89
2021/09/13 02:54:02;;;;;;;13.50;1.80;;;;;;;;;;5017991;28;20034;-88
2021/09/13 02:56:28;;;;;;;4.07;1.17;;;;;;;;;;5018841;28;20492;-88
2021/09/13 02:58:54;;;;;;;3.30;0.80;;;;;;;;;;5018447;28;20022;-89
2021/09/13 03:01:20;;;;;;;5.57;0.90;;;;;;;;;;5018314;28;20038;-88
2021/09/13 03:03:46;;;;;;;6.22;0.88;;;;;;;;;;5018438;28;20040;-88
2021/09/13 03:06:12;;;;;;;4.03;1.08;;;;;;;;;;5017818;28;20034;-84
2021/09/13 03:08:38;;;;;;;3.72;0.98;;;;;;;;;;5017151;28;20026;-83
2021/09/13 03:11:04;;;;;;;2.97;0.90;;;;;;;;;;5016286;28;20037;-84
2021/09/13 03:13:30;;;;;;;6.18;0.80;;;;;;;;;;5017158;28;20139;-84
2021/09/13 03:15:56;;;;;;;9.63;1.20;;;;;;;;;;5016096;28;20026;-85
2021/09/13 03:18:22;;;;;;;5.93;1.10;;;;;;;;;;5017921;28;20096;-85
2021/09/13 03:20:48;;;;;;;5.18;1.00;;;;;;;;;;5016312;28;20078;-85
2021/09/13 03:23:14;;;;;;;6.15;1.90;;;;;;;;;;5017744;28;20033;-85
2021/09/13 03:25:40;;;;;;;6.00;1.15;;;;;;;;;;5020234;28;20030;-89
2021/09/13 03:28:06;;;;;;;9.50;1.15;;;;;;;;;;5022475;28;20034;-89
2021/09/13 03:30:32;;;;;;;8.45;0.88;;;;;;;;;;5020125;28;20045;-87
2021/09/13 03:32:58;;;;;;;3.95;0.82;;;;;;;;;;5021664;28;20044;-87
2021/09/13 03:35:24;;;;;;;7.28;0.90;;;;;;;;;;5019142;28;20049;-79
2021/09/13 03:37:50;;;;;;;5.68;1.05;;;;;;;;;;5019171;28;20160;-79
2021/09/13 03:40:16;;;;;;;8.85;1.15;;;;;;;;;;5020756;28;20029;-87
2021/09/13 03:42:42;;;;;;;3.85;1.30;;;;;;;;;;5021712;28;20446;-88
2021/09/13 03:45:08;;;;;;;8.50;0.80;;;;;;;;;;5021986;28;20033;-88
2021/09/13 03:47:34;;;;;;;8.07;0.80;;;;;;;;;;5021004;28;20025;-87
2021/09/13 03:50:00;;;;;;;8.30;0.90;;;;;;;;;;5019797;28;20084;-78
2021/09/13 03:52:26;;;;;;;7.57;1.27;;;;;;;;;;5019292;28;20493;-85
2021/09/13 03:54:52;;;;;;;6.72;1.20;;;;;;;;;;5020077;28;20025;-79
2021/09/13 03:57:17;;;;;;;6.57;1.00;;;;;;;;;;5019136;28;20026;-84
2021/09/13 03:59:43;;;;;;;12.60;0.90;;;;;;;;;;5020239;28;20036;-86
2021/09/13 04:02:10;;;;;;;4.03;1.10;;;;;;;;;;5021281;28;20030;-88
2021/09/13 04:04:43;;;;;;;8.93;1.17;;;;;;;;;;5021307;28;20030;-87
2021/09/13 04:09:57;;;;;;;22.27;1.27;;;;;;;;;;5019956;28;20096;-81
2021/09/13 04:12:23;;;;;;;1.30;0.90;;;;;;;;;;5019295;28;20037;-81
2021/09/13 04:14:49;;;;;;;10.85;1.30;;;;;;;;;;5020217;28;20036;-81
2021/09/13 04:17:15;;;;;;;5.28;1.10;;;;;;;;;;5017988;28;20044;-82
2021/09/13 04:19:42;;;;;;;8.63;1.20;;;;;;;;;;5019887;28;20021;-89
2021/09/13 04:22:08;;;;;;;6.72;1.35;;;;;;;;;;5019445;28;20042;-82
2021/09/13 04:24:34;;;;;;;16.02;1.40;;;;;;;;;;5017649;28;20037;-82
2021/09/13 04:27:00;;;;;;;6.22;1.10;;;;;;;;;;5018537;28;20052;-86
2021/09/13 04:29:26;;;;;;;9.88;1.00;;;;;;;;;;5019927;28;20026;-87
2021/09/13 04:31:52;;;;;;;15.50;1.45;;;;;;;;;;5019904;28;20045;-85
2021/09/13 04:34:18;;;;;;;4.68;1.00;;;;;;;;;;5019537;28;20026;-85
2021/09/13 04:36:44;;;;;;;10.27;1.45;;;;;;;;;;5018292;28;20026;-84
2021/09/13 04:39:10;;;;;;;9.73;1.30;;;;;;;;;;5019431;28;20022;-82
2021/09/13 04:41:36;;;;;;;25.33;1.80;;;;;;;;;;5018244;28;20050;-81
2021/09/13 04:44:03;;;;;;;10.07;1.52;;;;;;;;;;5018801;28;20092;-84
2021/09/13 04:46:28;;;;;;;10.02;2.10;;;;;;;;;;5019362;28;20057;-80
2021/09/13 04:48:55;;;;;;;23.38;1.60;;;;;;;;;;5019593;28;20030;-83
2021/09/13 04:51:20;;;;;;;15.32;1.58;;;;;;;;;;5018609;28;20029;-76
2021/09/13 04:53:46;;;;;;;30.30;1.70;;;;;;;;;;5016747;28;20033;-77
2021/09/13 04:56:13;;;;;;;13.60;1.45;;;;;;;;;;5015494;28;20065;-74
2021/09/13 04:58:38;;;;;;;29.35;1.73;;;;;;;;;;4997763;28;20041;-78
2021/09/13 05:01:07;;;;;;;19.98;1.75;;;;;;;;;;4997563;28;20034;-79
2021/09/13 05:03:34;;;;;;;11.32;1.70;;;;;;;;;;4999632;28;20023;-87
2021/09/13 05:06:00;;;;;;;9.55;1.98;;;;;;;;;;4999203;28;20030;-77
2021/09/13 05:08:26;;;;;;;9.15;1.70;;;;;;;;;;4999289;28;20026;-84
2021/09/13 05:10:52;;;;;;;20.48;1.95;;;;;;;;;;4999789;28;20061;-80
2021/09/13 05:13:18;;;;;;;20.05;1.60;;;;;;;;;;4998528;28;20054;-79
2021/09/13 05:15:44;;;;;;;14.90;1.45;;;;;;;;;;4998998;28;20049;-80
2021/09/13 05:18:10;;;;;;;23.02;1.60;;;;;;;;;;4999273;28;20077;-79
2021/09/13 05:20:36;;;;;;;11.70;1.73;;;;;;;;;;4998749;28;20493;-81
2021/09/13 05:23:02;;;;;;;15.75;1.77;;;;;;;;;;4997915;28;20086;-79
2021/09/13 05:25:28;;;;;;;31.15;1.90;;;;;;;;;;5015531;28;20029;-82
2021/09/13 05:27:54;;;;;;;20.98;1.70;;;;;;;;;;5015812;28;20025;-78
2021/09/13 05:30:20;;;;;;;18.05;1.95;;;;;;;;;;5018487;28;20072;-84
2021/09/13 05:32:46;;;;;;;11.20;1.45;;;;;;;;;;5019258;28;20026;-84
2021/09/13 05:35:12;;;;;;;9.50;1.48;;;;;;;;;;5019629;28;20028;-89
2021/09/13 05:37:38;;;;;;;18.25;2.20;;;;;;;;;;5019051;28;20109;-83
2021/09/13 05:40:06;;;;;;;14.95;1.60;;;;;;;;;;5018758;28;20060;-83
2021/09/13 05:42:33;;;;;;;16.25;1.33;;;;;;;;;;5017683;28;20061;-80
2021/09/13 05:44:59;;;;;;;12.32;1.58;;;;;;;;;;5017599;28;20025;-81
2021/09/13 05:47:25;;;;;;;25.80;1.60;;;;;;;;;;5018258;28;20030;-84
2021/09/13 05:49:51;;;;;;;7.50;1.50;;;;;;;;;;5015910;28;20053;-86
2021/09/13 05:52:17;;;;;;;23.33;1.70;;;;;;;;;;5017888;28;20113;-81
2021/09/13 05:54:43;;;;;;;35.00;1.55;;;;;;;;;;5017585;28;20094;-85
2021/09/13 05:57:09;;;;;;;19.10;1.52;;;;;;;;;;5017278;28;20026;-80
2021/09/13 05:59:35;;;;;;;24.13;1.38;;;;;;;;;;5016835;28;20533;-70
2021/09/13 06:02:01;;;;;;;13.85;1.40;;;;;;;;;;5013634;28;20029;-68
2021/09/13 06:04:29;;;;;;;23.58;2.13;;;;;;;;;;5013747;28;20028;-67
2021/09/13 06:06:56;;;;;;;13.90;1.92;;;;;;;;;;5013924;28;20049;-63
2021/09/13 06:09:22;;;;;;;15.30;1.50;;;;;;;;;;5013767;28;20057;-65
2021/09/13 06:11:47;;;;;;;10.23;1.45;;;;;;;;;;5012837;28;20069;-66
2021/09/13 06:14:14;;;;;;;12.98;1.00;;;;;;;;;;5013532;28;20053;-62
2021/09/13 06:16:40;;;;;;;10.52;1.70;;;;;;;;;;5013268;28;20056;-62
2021/09/13 06:19:09;;;;;;;63.50;2.40;;;;;;;;;;5012392;28;20054;-63
2021/09/13 06:21:34;;;;;;;59.72;2.10;;;;;;;;;;5012728;28;20037;-63
2021/09/13 06:24:00;;;;;;;36.65;2.15;;;;;;;;;;5012868;28;20017;-64
2021/09/13 06:26:26;;;;;;;25.80;1.85;;;;;;;;;;5013459;28;20061;-64
2021/09/13 06:28:53;;;;;;;31.90;1.90;;;;;;;;;;5004763;28;20045;-62
2021/09/13 06:31:19;;;;;;;28.77;1.70;;;;;;;;;;4994135;28;20030;-63
2021/09/13 06:33:44;;;;;;;27.73;1.50;;;;;;;;;;4992341;28;20088;-63
2021/09/13 06:36:10;;;;;;;26.73;2.17;;;;;;;;;;4993577;28;20488;-63
2021/09/13 06:38:36;;;;;;;9.18;1.35;;;;;;;;;;5002200;28;20061;-63
2021/09/13 06:41:02;;;;;;;16.45;1.80;;;;;;;;;;5001855;28;20038;-63
2021/09/13 06:43:29;;;;;;;12.73;2.17;;;;;;;;;;5004201;28;20026;-63
2021/09/13 06:48:57;;;;;;;14.65;1.52;;;;;;;;;;4969537;28;20103;-63
2021/09/13 06:51:23;;;;;;;14.73;2.05;;;;;;;;;;5008209;28;20485;-63
2021/09/13 06:53:49;;;;;;;11.38;1.50;;;;;;;;;;4993558;28;20034;-63
2021/09/13 06:56:15;;;;;;;16.42;1.92;;;;;;;;;;4993545;28;20023;-62
2021/09/13 06:58:41;;;;;;;13.57;1.27;;;;;;;;;;4993652;28;20739;-63
2021/09/13 07:01:07;;;;;;;5.88;1.23;;;;;;;;;;4992434;28;20034;-63
2021/09/13 07:03:34;;;;;;;10.60;1.00;;;;;;;;;;4993433;28;20037;-63
2021/09/13 07:06:00;;;;;;;7.07;1.10;;;;;;;;;;4993549;28;20462;-62
2021/09/13 07:08:26;;;;;;;8.77;1.55;;;;;;;;;;4993299;28;20223;-62
2021/09/13 07:10:53;;;;;;;9.00;1.58;;;;;;;;;;4993285;28;20053;-63
2021/09/13 07:13:19;;;;;;;15.32;1.00;;;;;;;;;;4993142;28;20042;-63
2021/09/13 07:15:45;;;;;;;5.28;1.00;;;;;;;;;;4996130;28;20529;-62
2021/09/13 07:18:13;;;;;;;4.75;1.00;;;;;;;;;;5012847;28;20026;-62
2021/09/13 07:20:40;;;;;;;9.05;1.23;;;;;;;;;;5012861;28;20087;-63
2021/09/13 07:23:06;;;;;;;8.20;0.95;;;;;;;;;;5012960;28;20034;-63
2021/09/13 07:25:32;;;;;;;5.72;1.10;;;;;;;;;;5011306;28;20113;-63
2021/09/13 07:27:58;;;;;;;4.53;1.05;;;;;;;;;;5012593;28;20022;-63
2021/09/13 07:30:24;;;;;;;9.15;0.95;;;;;;;;;;5012754;28;20091;-63
2021/09/13 07:32:50;;;;;;;3.85;1.10;;;;;;;;;;5012657;28;20792;-63
2021/09/13 07:35:16;;;;;;;10.63;1.10;;;;;;;;;;5012624;28;20025;-62
2021/09/13 07:37:42;;;;;;;5.88;1.10;;;;;;;;;;5012826;28;20111;-62
2021/09/13 07:40:09;;;;;;;8.57;0.80;;;;;;;;;;5012516;28;20037;-62
2021/09/13 07:42:35;;;;;;;5.88;1.05;;;;;;;;;;5010945;28;20045;-62
2021/09/13 07:45:02;;;;;;;7.78;1.10;;;;;;;;;;4993246;28;20033;-62
2021/09/13 07:47:30;;;;;;;6.43;0.90;;;;;;;;;;4993075;28;20062;-62
2021/09/13 07:49:56;;;;;;;4.70;1.05;;;;;;;;;;4993131;28;20019;-62
2021/09/13 07:52:22;;;;;;;6.38;0.80;;;;;;;;;;4992949;28;20022;-62
2021/09/13 07:54:48;;;;;;;5.75;0.98;;;;;;;;;;4991743;28;20065;-62
2021/09/13 07:57:14;;;;;;;5.55;0.90;;;;;;;;;;4992733;28;20058;-62
2021/09/13 07:59:40;;;;;;;3.10;0.73;;;;;;;;;;4992873;28;20091;-62
2021/09/13 08:02:07;;;;;;;8.73;1.20;;;;;;;;;;4992686;28;20097;-63
2021/09/13 08:04:33;;;;;;;1.98;0.70;;;;;;;;;;4992807;28;20054;-62
2021/09/13 08:06:59;;;;;;;9.43;0.70;;;;;;;;;;4992786;28;20049;-62
2021/09/13 08:09:25;;;;;;;7.30;1.55;;;;;;;;;;4992894;28;20355;-62
2021/09/13 08:11:51;;;;;;;3.75;0.80;;;;;;;;;;4993165;28;20045;-63
2021/09/13 08:14:17;;;;;;;3.05;0.85;;;;;;;;;;4996243;28;20050;-62
2021/09/13 08:16:43;;;;;;;3.45;0.70;;;;;;;;;;5005419;28;20022;-62
2021/09/13 08:19:10;;;;;;;9.00;0.90;;;;;;;;;;5015842;28;20113;-62
2021/09/13 08:21:40;;;;;;;7.85;0.80;;;;;;;;;;5015792;28;20084;-62
2021/09/13 08:24:06;;;;;;;2.88;0.98;;;;;;;;;;5015874;28;20014;-62
2021/09/13 08:26:32;;;;;;;4.55;0.95;;;;;;;;;;5015507;28;20030;-61
2021/09/13 08:28:58;;;;;;;3.35;0.60;;;;;;;;;;5014969;28;20370;-61
2021/09/13 08:31:24;;;;;;;2.20;0.90;;;;;;;;;;4998773;28;20034;-60
2021/09/13 08:33:50;;;;;;;1.63;0.80;;;;;;;;;;5001224;28;20029;-63
2021/09/13 08:36:16;;;;;;;2.45;0.90;;;;;;;;;;5003955;28;20030;-59
2021/09/13 08:38:42;;;;;;;3.92;1.02;;;;;;;;;;4995869;28;20481;-62
2021/09/13 08:41:08;;;;;;;4.97;0.93;;;;;;;;;;4995606;28;20034;-63
2021/09/13 08:43:35;;;;;;;4.38;0.98;;;;;;;;;;5005212;28;20045;-62
2021/09/13 08:46:06;;;;;;;4.15;1.15;;;;;;;;;;5015295;28;20489;-62
2021/09/13 08:48:37;;;;;;;3.08;0.70;;;;;;;;;;5015191;28;20061;-62
2021/09/13 08:53:33;;;;;;;5.38;0.90;;;;;;;;;;5015214;28;20497;-62
2021/09/13 08:56:02;;;;;;;6.97;0.90;;;;;;;;;;5014797;28;20538;-62
2021/09/13 08:58:28;;;;;;;2.72;0.80;;;;;;;;;;5009330;28;20534;-62
2021/09/13 09:00:54;;;;;;;2.03;0.80;;;;;;;;;;4994580;28;20529;-62
2021/09/13 09:03:20;;;;;;;3.40;0.70;;;;;;;;;;5008544;28;20121;-63
2021/09/13 09:05:47;;;;;;;3.15;0.77;;;;;;;;;;5012506;28;20108;-62
2021/09/13 09:08:25;;;;;;;4.15;0.90;;;;;;;;;;5003743;28;20377;-62
2021/09/13 09:10:58;;;;;;;3.38;0.88;;;;;;;;;;5013797;28;20037;-62
2021/09/13 09:13:26;;;;;;;2.88;0.80;;;;;;;;;;5014323;28;20466;-63
2021/09/13 09:15:54;;;;;;;3.30;0.60;;;;;;;;;;5010912;28;20386;-62
2021/09/13 09:18:21;;;;;;;2.40;0.70;;;;;;;;;;4993729;28;20105;-62
2021/09/13 09:20:47;;;;;;;4.00;0.70;;;;;;;;;;4994949;28;20030;-62
2021/09/13 09:23:13;;;;;;;2.90;0.57;;;;;;;;;;4995424;28;20022;-62
2021/09/13 09:25:40;;;;;;;2.45;0.70;;;;;;;;;;5001786;28;20818;-62
2021/09/13 09:28:11;;;;;;;5.50;1.00;;;;;;;;;;4986911;28;20030;-63
2021/09/13 09:30:38;;;;;;;1.90;0.60;;;;;;;;;;4994782;28;20037;-62
2021/09/13 09:33:09;;;;;;;1.58;0.57;;;;;;;;;;5008123;28;20084;-62
2021/09/13 09:35:42;;;;;;;3.38;0.82;;;;;;;;;;5004170;28;20088;-62
2021/09/13 09:38:28;;;;;;;4.00;0.70;;;;;;;;;;5014130;28;20080;-62
2021/09/13 09:41:01;;;;;;;2.45;0.68;;;;;;;;;;5004142;28;20168;-62
2021/09/13 09:43:29;;;;;;;4.18;0.75;;;;;;;;;;5005277;28;20030;-62
2021/09/13 09:45:55;;;;;;;1.80;0.60;;;;;;;;;;4994544;28;20030;-62
2021/09/13 09:48:28;;;;;;;1.58;0.70;;;;;;;;;;4994244;28;20109;-62
2021/09/13 09:50:54;;;;;;;2.95;0.88;;;;;;;;;;4994626;28;20462;-62
2021/09/13 09:53:21;;;;;;;1.73;0.70;;;;;;;;;;5005692;28;20048;-62
2021/09/13 09:55:53;;;;;;;2.28;0.70;;;;;;;;;;5013792;28;20026;-62
2021/09/13 09:58:19;;;;;;;1.92;0.70;;;;;;;;;;5000801;28;20022;-62
2021/09/13 10:00:45;;;;;;;2.42;0.80;;;;;;;;;;4993880;28;20037;-62
2021/09/13 10:03:27;;;;;;;2.95;0.82;;;;;;;;;;4994090;28;20105;-62
2021/09/13 10:05:53;;;;;;;3.88;0.90;;;;;;;;;;4994929;28;20022;-63
2021/09/13 10:08:19;;;;;;;2.50;0.82;;;;;;;;;;5005669;28;20014;-62
2021/09/13 10:10:45;;;;;;;3.20;0.90;;;;;;;;;;5005735;28;20085;-63
2021/09/13 10:13:11;;;;;;;3.25;1.00;;;;;;;;;;4992571;28;20100;-63
2021/09/13 10:15:37;;;;;;;4.38;1.08;;;;;;;;;;5000270;28;20096;-63
2021/09/13 10:18:04;;;;;;;4.78;0.85;;;;;;;;;;5012287;28;20462;-65
2021/09/13 10:20:31;;;;;;;6.93;1.00;;;;;;;;;;5012083;28;20533;-63
2021/09/13 10:22:57;;;;;;;4.40;1.00;;;;;;;;;;5011919;28;20104;-65
2021/09/13 10:25:28;;;;;;;2.25;0.80;;;;;;;;;;5011870;28;20018;-63
2021/09/13 10:28:01;;;;;;;3.83;1.23;;;;;;;;;;5011994;28;20053;-62
2021/09/13 10:30:28;;;;;;;5.45;0.98;;;;;;;;;;5011966;28;20026;-64
2021/09/13 10:33:10;;;;;;;3.55;1.00;;;;;;;;;;4995545;28;20142;-63
2021/09/13 10:35:59;;;;;;;3.97;1.00;;;;;;;;;;4992744;28;20034;-65
2021/09/13 10:38:40;;;;;;;2.88;1.00;;;;;;;;;;4995014;28;20041;-63
2021/09/13 10:41:06;;;;;;;2.90;1.00;;;;;;;;;;5011849;28;20026;-63
2021/09/13 10:43:32;;;;;;;1.65;0.85;;;;;;;;;;5010633;28;20049;-62
2021/09/13 10:45:58;;;;;;;2.53;0.85;;;;;;;;;;5011553;28;20036;-63
2021/09/13 10:48:24;;;;;;;1.85;0.85;;;;;;;;;;4992411;28;20026;-63
2021/09/13 10:50:52;;;;;;;2.53;0.60;;;;;;;;;;4992288;28;20045;-63
2021/09/13 10:53:18;;;;;;;8.70;1.00;;;;;;;;;;4992098;28;20033;-63
2021/09/13 10:55:48;;;;;;;0.93;0.70;;;;;;;;;;4997380;28;20038;-64
2021/09/13 10:58:18;;;;;;;2.58;0.77;;;;;;;;;;4993157;28;20026;-64
2021/09/13 11:00:44;;;;;;;2.10;0.80;;;;;;;;;;4992135;28;22033;-63
2021/09/13 11:03:22;;;;;;;3.47;0.93;;;;;;;;;;4992020;28;20066;-63
2021/09/13 11:08:37;;;;;;;3.33;1.00;;;;;;;;;;4991986;28;20030;-63
2021/09/13 11:11:15;;;;;;;2.75;0.90;;;;;;;;;;4991944;28;20097;-65
2021/09/13 11:13:42;;;;;;;2.88;0.60;;;;;;;;;;4991701;28;20054;-63
2021/09/13 11:16:09;;;;;;;2.53;0.90;;;;;;;;;;4995204;28;20057;-64
2021/09/13 11:18:36;;;;;;;3.17;0.90;;;;;;;;;;4991786;28;20529;-64
2021/09/13 11:21:22;;;;;;;2.45;0.90;;;;;;;;;;4993388;28;20674;-63
2021/09/13 11:23:57;;;;;;;5.85;1.17;;;;;;;;;;4991499;28;20109;-64
2021/09/13 11:26:31;;;;;;;1.70;0.93;;;;;;;;;;5007662;28;20028;-65
2021/09/13 11:29:00;;;;;;;2.70;1.00;;;;;;;;;;5009721;28;20028;-64
2021/09/13 11:31:33;;;;;;;2.85;1.10;;;;;;;;;;5001215;28;20081;-63
2021/09/13 11:34:00;;;;;;;2.13;0.85;;;;;;;;;;4991770;28;20027;-65
2021/09/13 11:36:27;;;;;;;5.25;1.30;;;;;;;;;;4995392;28;20137;-65
2021/09/13 11:38:56;;;;;;;3.03;1.00;;;;;;;;;;5004935;28;20026;-63
2021/09/13 11:41:22;;;;;;;5.78;1.42;;;;;;;;;;4998660;28;20030;-63
2021/09/13 11:44:07;;;;;;;3.70;1.15;;;;;;;;;;5001534;28;20033;-64
2021/09/13 11:46:51;;;;;;;4.47;1.60;;;;;;;;;;5003088;28;20108;-63
2021/09/13 11:49:18;;;;;;;7.57;2.22;;;;;;;;;;5005489;28;20018;-64
2021/09/13 11:52:03;;;;;;;5.75;2.38;;;;;;;;;;5006973;28;20050;-63
2021/09/13 11:54:29;;;;;;;8.07;2.72;;;;;;;;;;5002702;28;20109;-64
2021/09/13 11:56:55;;;;;;;8.50;2.70;;;;;;;;;;5006032;28;20029;-65
2021/09/13 11:59:24;;;;;;;5.32;2.05;;;;;;;;;;5005194;28;20022;-63
2021/09/13 12:02:00;;;;;;;5.32;2.08;;;;;;;;;;5002351;28;20113;-63
2021/09/13 12:04:27;;;;;;;6.22;2.08;;;;;;;;;;5001379;28;20528;-63
2021/09/13 12:07:06;;;;;;;6.32;2.95;;;;;;;;;;5002914;28;20485;-63
2021/09/13 12:09:33;;;;;;;8.02;3.13;;;;;;;;;;5004960;28;20033;-64
2021/09/13 12:11:59;;;;;;;7.40;3.00;;;;;;;;;;5000232;28;20120;-63
2021/09/13 12:14:26;;;;;;;8.60;2.83;;;;;;;;;;4994914;28;20034;-63
2021/09/13 12:17:08;;;;;;;8.20;2.50;;;;;;;;;;4998099;28;20109;-63
2021/09/13 12:19:35;;;;;;;5.38;2.60;;;;;;;;;;4994896;28;20019;-63
2021/09/13 12:22:01;;;;;;;7.28;2.15;;;;;;;;;;4994722;28;20046;-63
2021/09/13 12:24:27;;;;;;;6.55;1.95;;;;;;;;;;4994563;28;20053;-63
2021/09/13 12:26:54;;;;;;;5.18;2.15;;;;;;;;;;4994559;28;20065;-63
2021/09/13 12:29:20;;;;;;;2.60;1.60;;;;;;;;;;4994965;28;20106;-63
2021/09/13 12:31:46;;;;;;;4.60;1.67;;;;;;;;;;5001771;28;20133;-62
2021/09/13 12:34:12;;;;;;;4.82;2.00;;;;;;;;;;5013799;28;20080;-63
2021/09/13 12:36:38;;;;;;;4.80;1.73;;;;;;;;;;5014339;28;20052;-63
2021/09/13 12:39:07;;;;;;;4.50;1.50;;;;;;;;;;5013846;28;20050;-63
2021/09/13 12:41:38;;;;;;;3.88;1.55;;;;;;;;;;5013916;28;20113;-63
2021/09/13 12:44:23;;;;;;;4.95;1.70;;;;;;;;;;5013972;28;20021;-63
2021/09/13 12:46:52;;;;;;;6.13;1.38;;;;;;;;;;5013818;28;20029;-63
2021/09/13 12:49:18;;;;;;;3.38;1.30;;;;;;;;;;5010610;28;20022;-63
2021/09/13 12:51:59;;;;;;;4.80;1.40;;;;;;;;;;5013756;28;20034;-63
2021/09/13 12:54:43;;;;;;;4.32;1.33;;;;;;;;;;5007990;28;20041;-64
2021/09/13 12:57:09;;;;;;;4.57;1.58;;;;;;;;;;4995688;28;20050;-62
2021/09/13 12:59:35;;;;;;;3.05;1.20;;;;;;;;;;4992764;28;20062;-63
2021/09/13 13:02:12;;;;;;;5.60;1.00;;;;;;;;;;4993856;28;20038;-63
2021/09/13 13:04:38;;;;;;;2.90;1.17;;;;;;;;;;4994036;28;20092;-62
2021/09/13 13:07:11;;;;;;;4.15;0.98;;;;;;;;;;4994082;28;20031;-63
2021/09/13 13:09:37;;;;;;;2.50;0.93;;;;;;;;;;4993906;28;20023;-63
2021/09/13 13:12:04;;;;;;;2.90;1.00;;;;;;;;;;4993637;28;20039;-63
2021/09/13 13:14:30;;;;;;;1.70;0.88;;;;;;;;;;4993719;28;20057;-63
2021/09/13 13:16:56;;;;;;;2.63;0.93;;;;;;;;;;5009231;28;20465;-63
2021/09/13 13:19:22;;;;;;;5.15;0.80;;;;;;;;;;5010208;28;20045;-63
2021/09/13 13:21:49;;;;;;;4.03;1.05;;;;;;;;;;4993819;28;20084;-64
2021/09/13 13:24:16;;;;;;;7.45;1.15;;;;;;;;;;4993567;28;20037;-65
2021/09/13 13:26:43;;;;;;;2.90;0.73;;;;;;;;;;4993376;28;20362;-63
2021/09/13 13:29:09;;;;;;;2.90;0.70;;;;;;;;;;4993544;28;20049;-63
2021/09/13 13:31:39;;;;;;;7.95;1.33;;;;;;;;;;4999154;28;20108;-64
2021/09/13 13:34:05;;;;;;;3.63;0.75;;;;;;;;;;5011903;28;20033;-65
2021/09/13 13:36:31;;;;;;;2.85;1.02;;;;;;;;;;5013036;28;20061;-63
2021/09/13 13:38:57;;;;;;;1.15;0.60;;;;;;;;;;5011856;28;20053;-63
2021/09/13 13:41:23;;;;;;;3.25;0.73;;;;;;;;;;5012856;28;20068;-64
2021/09/13 13:43:49;;;;;;;1.13;0.60;;;;;;;;;;5013193;28;20057;-63
2021/09/13 13:46:15;;;;;;;4.18;0.80;;;;;;;;;;5012616;28;20037;-65
2021/09/13 13:48:41;;;;;;;3.08;0.75;;;;;;;;;;5012684;28;20113;-63
2021/09/13 13:51:07;;;;;;;1.88;0.70;;;;;;;;;;5012818;28;20026;-65
2021/09/13 13:53:33;;;;;;;2.97;0.85;;;;;;;;;;5012655;28;20053;-63
2021/09/13 13:55:59;;;;;;;1.60;0.50;;;;;;;;;;5012495;28;20032;-63
2021/09/13 13:58:25;;;;;;;2.25;0.90;;;;;;;;;;5001476;28;20030;-64
2021/09/13 14:00:53;;;;;;;1.88;0.70;;;;;;;;;;4992792;28;20050;-63
2021/09/13 14:03:19;;;;;;;2.50;1.00;;;;;;;;;;4996165;28;20022;-63
2021/09/13 14:05:46;;;;;;;1.17;0.70;;;;;;;;;;5010331;28;20019;-63
2021/09/13 14:08:12;;;;;;;2.50;0.70;;;;;;;;;;4999139;28;20421;-63
2021/09/13 14:10:38;;;;;;;3.17;0.60;;;;;;;;;;4991209;28;20026;-63
2021/09/13 14:13:04;;;;;;;2.90;0.77;;;;;;;;;;5009482;28;20049;-62
2021/09/13 14:15:30;;;;;;;1.77;0.70;;;;;;;;;;5008717;28;20081;-63
2021/09/13 14:17:56;;;;;;;2.33;0.70;;;;;;;;;;5012445;28;20546;-63
2021/09/13 14:20:22;;;;;;;1.63;0.60;;;;;;;;;;5012516;28;20010;-63
2021/09/13 14:22:49;;;;;;;2.33;0.68;;;;;;;;;;5012040;28;20041;-63
2021/09/13 14:25:15;;;;;;;2.22;0.65;;;;;;;;;;5012222;28;20097;-63
2021/09/13 14:27:41;;;;;;;9.85;0.68;;;;;;;;;;4998542;28;20126;-63
2021/09/13 14:30:07;;;;;;;2.33;0.57;;;;;;;;;;4992492;28;20466;-63
2021/09/13 14:32:33;;;;;;;1.38;0.60;;;;;;;;;;4991110;28;20029;-65
2021/09/13 14:34:59;;;;;;;6.07;0.68;;;;;;;;;;4992219;28;20094;-63
2021/09/13 14:37:25;;;;;;;1.67;0.50;;;;;;;;;;4999085;28;20063;-64
2021/09/13 14:39:51;;;;;;;3.67;0.82;;;;;;;;;;5012084;28;20036;-63
2021/09/13 14:42:17;;;;;;;2.00;0.68;;;;;;;;;;5012275;28;20057;-63
2021/09/13 14:44:43;;;;;;;1.92;0.60;;;;;;;;;;5011880;28;20030;-63
2021/09/13 14:47:09;;;;;;;2.65;0.77;;;;;;;;;;5000247;28;20026;-63
2021/09/13 14:49:36;;;;;;;2.38;0.60;;;;;;;;;;4992232;28;20662;-64
2021/09/13 14:52:05;;;;;;;2.67;0.63;;;;;;;;;;4998637;28;20030;-63